sensor_id;sensor_type;location;lat;lon;timestamp;pressure;altitude;pressure_sealevel;temperature;humidity
69171;BME280;56279;47.902;12.308;2023-03-16T00:01:34;95781.38;;;1.60;87.47
69171;BME280;56279;47.902;12.308;2023-03-16T00:03:36;95782.13;;;1.67;88.36
69171;BME280;56279;47.902;12.308;2023-03-16T00:05:37;95793.72;;;1.71;87.98
69171;BME280;56279;47.902;12.308;2023-03-16T00:07:39;95784.50;;;1.75;87.71
69171;BME280;56279;47.902;12.308;2023-03-16T00:09:42;95775.84;;;1.81;87.59
69171;BME280;56279;47.902;12.308;2023-03-16T00:11:43;95778.84;;;1.84;87.75
69171;BME280;56279;47.902;12.308;2023-03-16T00:13:44;95783.59;;;1.87;88.14
69171;BME280;56279;47.902;12.308;2023-03-16T00:16:03;95788.16;;;1.92;87.43
69171;BME280;56279;47.902;12.308;2023-03-16T00:18:04;95787.16;;;1.93;88.19
69171;BME280;56279;47.902;12.308;2023-03-16T00:20:06;95787.75;;;1.95;88.12
69171;BME280;56279;47.902;12.308;2023-03-16T00:22:08;95787.75;;;1.95;87.68
69171;BME280;56279;47.902;12.308;2023-03-16T00:24:10;95782.16;;;1.91;87.45
69171;BME280;56279;47.902;12.308;2023-03-16T00:26:12;95782.59;;;1.88;88.28
69171;BME280;56279;47.902;12.308;2023-03-16T00:28:15;95787.22;;;1.86;88.71
69171;BME280;56279;47.902;12.308;2023-03-16T00:30:17;95785.38;;;1.87;88.49
69171;BME280;56279;47.902;12.308;2023-03-16T00:32:21;95791.63;;;1.86;88.38
69171;BME280;56279;47.902;12.308;2023-03-16T00:34:22;95779.59;;;1.85;88.49
69171;BME280;56279;47.902;12.308;2023-03-16T00:36:24;95783.81;;;1.86;87.83
69171;BME280;56279;47.902;12.308;2023-03-16T00:38:25;95781.22;;;1.86;88.06
69171;BME280;56279;47.902;12.308;2023-03-16T00:40:27;95779.81;;;1.83;88.60
69171;BME280;56279;47.902;12.308;2023-03-16T00:42:29;95775.63;;;1.82;88.42
69171;BME280;56279;47.902;12.308;2023-03-16T00:44:32;95782.03;;;1.80;88.49
69171;BME280;56279;47.902;12.308;2023-03-16T00:46:34;95777.84;;;1.79;88.93
69171;BME280;56279;47.902;12.308;2023-03-16T00:48:36;95770.84;;;1.79;88.34
69171;BME280;56279;47.902;12.308;2023-03-16T00:50:38;95775.84;;;1.81;87.95
69171;BME280;56279;47.902;12.308;2023-03-16T00:52:40;95778.44;;;1.81;87.98
69171;BME280;56279;47.902;12.308;2023-03-16T00:54:44;95776.06;;;1.79;88.61
69171;BME280;56279;47.902;12.308;2023-03-16T00:56:46;95781.91;;;1.75;88.37
69171;BME280;56279;47.902;12.308;2023-03-16T00:58:48;95771.31;;;1.70;88.42
69171;BME280;56279;47.902;12.308;2023-03-16T01:00:50;95763.56;;;1.63;88.61
69171;BME280;56279;47.902;12.308;2023-03-16T01:02:54;95766.41;;;1.55;88.60
69171;BME280;56279;47.902;12.308;2023-03-16T01:04:55;95768.47;;;1.47;88.91
69171;BME280;56279;47.902;12.308;2023-03-16T01:06:56;95776.31;;;1.40;88.76
69171;BME280;56279;47.902;12.308;2023-03-16T01:08:58;95773.72;;;1.33;89.01
69171;BME280;56279;47.902;12.308;2023-03-16T01:11:04;95777.38;;;1.26;90.05
69171;BME280;56279;47.902;12.308;2023-03-16T01:13:06;95770.19;;;1.21;89.70
69171;BME280;56279;47.902;12.308;2023-03-16T01:15:08;95776.63;;;1.19;89.42
69171;BME280;56279;47.902;12.308;2023-03-16T01:17:14;95763.63;;;1.12;89.62
69171;BME280;56279;47.902;12.308;2023-03-16T01:19:17;95765.06;;;1.08;89.75
69171;BME280;56279;47.902;12.308;2023-03-16T01:21:19;95762.28;;;1.03;90.18
69171;BME280;56279;47.902;12.308;2023-03-16T01:23:23;95758.91;;;0.96;89.99
69171;BME280;56279;47.902;12.308;2023-03-16T01:25:24;95762.34;;;0.90;90.19
69171;BME280;56279;47.902;12.308;2023-03-16T01:27:26;95772.31;;;0.87;90.14
69171;BME280;56279;47.902;12.308;2023-03-16T01:29:27;95765.75;;;0.84;89.96
69171;BME280;56279;47.902;12.308;2023-03-16T01:31:33;95760.97;;;0.81;90.64
69171;BME280;56279;47.902;12.308;2023-03-16T01:33:37;95757.34;;;0.82;90.72
69171;BME280;56279;47.902;12.308;2023-03-16T01:35:52;95760.97;;;0.81;91.13
69171;BME280;56279;47.902;12.308;2023-03-16T01:37:54;95756.19;;;0.78;90.99
69171;BME280;56279;47.902;12.308;2023-03-16T01:39:59;95760.78;;;0.76;91.31
69171;BME280;56279;47.902;12.308;2023-03-16T01:42:00;95767.19;;;0.74;91.34
69171;BME280;56279;47.902;12.308;2023-03-16T01:44:01;95757.19;;;0.70;90.09
69171;BME280;56279;47.902;12.308;2023-03-16T01:48:06;95766.63;;;0.65;91.09
69171;BME280;56279;47.902;12.308;2023-03-16T01:50:09;95760.84;;;0.63;91.39
69171;BME280;56279;47.902;12.308;2023-03-16T01:52:17;95757.22;;;0.64;91.67
69171;BME280;56279;47.902;12.308;2023-03-16T01:54:29;95750.25;;;0.64;91.61
69171;BME280;56279;47.902;12.308;2023-03-16T01:58:58;95743.66;;;0.62;91.11
69171;BME280;56279;47.902;12.308;2023-03-16T02:01:01;95736.84;;;0.61;91.31
69171;BME280;56279;47.902;12.308;2023-03-16T02:03:10;95746.66;;;0.59;90.87
69171;BME280;56279;47.902;12.308;2023-03-16T02:06:10;95740.28;;;0.55;91.26
69171;BME280;56279;47.902;12.308;2023-03-16T02:08:18;95739.09;;;0.51;91.39
69171;BME280;56279;47.902;12.308;2023-03-16T02:10:20;95738.50;;;0.49;91.67
69171;BME280;56279;47.902;12.308;2023-03-16T02:14:55;95739.53;;;0.41;91.67
69171;BME280;56279;47.902;12.308;2023-03-16T02:16:56;95736.91;;;0.41;91.58
69171;BME280;56279;47.902;12.308;2023-03-16T02:18:58;95731.91;;;0.40;91.30
69171;BME280;56279;47.902;12.308;2023-03-16T02:21:23;95731.31;;;0.38;92.10
69171;BME280;56279;47.902;12.308;2023-03-16T02:23:30;95734.34;;;0.35;92.22
69171;BME280;56279;47.902;12.308;2023-03-16T02:25:43;95735.53;;;0.32;91.37
69171;BME280;56279;47.902;12.308;2023-03-16T02:27:59;95737.34;;;0.32;91.76
69171;BME280;56279;47.902;12.308;2023-03-16T02:30:16;95743.94;;;0.28;92.26
69171;BME280;56279;47.902;12.308;2023-03-16T02:32:31;95733.97;;;0.25;91.80
69171;BME280;56279;47.902;12.308;2023-03-16T02:34:35;95732.78;;;0.21;92.03
69171;BME280;56279;47.902;12.308;2023-03-16T02:36:38;95733.16;;;0.18;92.41
69171;BME280;56279;47.902;12.308;2023-03-16T02:38:42;95737.78;;;0.16;92.57
69171;BME280;56279;47.902;12.308;2023-03-16T02:40:44;95739.34;;;0.17;92.90
69171;BME280;56279;47.902;12.308;2023-03-16T02:43:06;95742.97;;;0.16;92.84
69171;BME280;56279;47.902;12.308;2023-03-16T02:45:14;95745.16;;;0.19;92.45
69171;BME280;56279;47.902;12.308;2023-03-16T02:47:38;95745.94;;;0.19;92.19
69171;BME280;56279;47.902;12.308;2023-03-16T02:49:43;95748.34;;;0.21;92.73
69171;BME280;56279;47.902;12.308;2023-03-16T02:51:45;95739.38;;;0.23;92.33
69171;BME280;56279;47.902;12.308;2023-03-16T02:53:47;95743.94;;;0.28;92.45
69171;BME280;56279;47.902;12.308;2023-03-16T02:55:49;95739.94;;;0.32;92.43
69171;BME280;56279;47.902;12.308;2023-03-16T02:57:54;95740.13;;;0.37;92.62
69171;BME280;56279;47.902;12.308;2023-03-16T02:59:55;95742.50;;;0.38;92.28
69171;BME280;56279;47.902;12.308;2023-03-16T03:01:57;95733.75;;;0.39;92.05
69171;BME280;56279;47.902;12.308;2023-03-16T03:03:58;95737.72;;;0.35;92.00
69171;BME280;56279;47.902;12.308;2023-03-16T03:06:00;95739.13;;;0.31;91.87
69171;BME280;56279;47.902;12.308;2023-03-16T03:08:05;95744.72;;;0.28;92.25
69171;BME280;56279;47.902;12.308;2023-03-16T03:10:07;95745.53;;;0.29;92.31
69171;BME280;56279;47.902;12.308;2023-03-16T03:12:09;95750.72;;;0.29;92.42
69171;BME280;56279;47.902;12.308;2023-03-16T03:14:10;95747.94;;;0.30;92.00
69171;BME280;56279;47.902;12.308;2023-03-16T03:16:14;95751.91;;;0.33;92.05
69171;BME280;56279;47.902;12.308;2023-03-16T03:18:15;95749.91;;;0.35;92.08
69171;BME280;56279;47.902;12.308;2023-03-16T03:20:17;95741.13;;;0.36;92.35
69171;BME280;56279;47.902;12.308;2023-03-16T03:22:19;95743.72;;;0.36;92.94
69171;BME280;56279;47.902;12.308;2023-03-16T03:24:22;95749.50;;;0.38;92.24
69171;BME280;56279;47.902;12.308;2023-03-16T03:26:23;95749.91;;;0.41;92.51
69171;BME280;56279;47.902;12.308;2023-03-16T03:28:28;95734.91;;;0.43;92.21
69171;BME280;56279;47.902;12.308;2023-03-16T03:30:30;95738.91;;;0.46;92.32
69171;BME280;56279;47.902;12.308;2023-03-16T03:32:33;95742.31;;;0.46;92.35
69171;BME280;56279;47.902;12.308;2023-03-16T03:34:34;95738.28;;;0.50;92.50
69171;BME280;56279;47.902;12.308;2023-03-16T03:36:36;95733.69;;;0.52;92.49
69171;BME280;56279;47.902;12.308;2023-03-16T03:38:38;95738.66;;;0.54;92.78
69171;BME280;56279;47.902;12.308;2023-03-16T03:40:43;95747.06;;;0.56;93.01
69171;BME280;56279;47.902;12.308;2023-03-16T03:42:47;95733.06;;;0.57;92.70
69171;BME280;56279;47.902;12.308;2023-03-16T03:44:50;95743.47;;;0.57;92.53
69171;BME280;56279;47.902;12.308;2023-03-16T03:46:53;95745.06;;;0.58;92.19
69171;BME280;56279;47.902;12.308;2023-03-16T03:48:55;95745.84;;;0.58;92.17
69171;BME280;56279;47.902;12.308;2023-03-16T03:51:01;95738.84;;;0.59;92.53
69171;BME280;56279;47.902;12.308;2023-03-16T03:53:09;95743.25;;;0.58;92.64
69171;BME280;56279;47.902;12.308;2023-03-16T03:55:24;95736.47;;;0.57;92.78
69171;BME280;56279;47.902;12.308;2023-03-16T03:57:38;95746.66;;;0.59;92.84
69171;BME280;56279;47.902;12.308;2023-03-16T03:59:40;95739.28;;;0.56;92.17
69171;BME280;56279;47.902;12.308;2023-03-16T04:02:02;95743.88;;;0.54;92.89
69171;BME280;56279;47.902;12.308;2023-03-16T04:04:13;95752.47;;;0.48;92.40
69171;BME280;56279;47.902;12.308;2023-03-16T04:06:15;95749.69;;;0.43;92.57
69171;BME280;56279;47.902;12.308;2023-03-16T04:08:16;95747.91;;;0.37;92.84
69171;BME280;56279;47.902;12.308;2023-03-16T04:10:18;95736.16;;;0.28;92.95
69171;BME280;56279;47.902;12.308;2023-03-16T04:12:21;95741.16;;;0.23;93.07
69171;BME280;56279;47.902;12.308;2023-03-16T04:14:23;95735.97;;;0.16;92.85
69171;BME280;56279;47.902;12.308;2023-03-16T04:16:24;95741.94;;;0.10;93.28
69171;BME280;56279;47.902;12.308;2023-03-16T04:18:29;95731.38;;;0.05;93.32
69171;BME280;56279;47.902;12.308;2023-03-16T04:20:38;95728.19;;;0.03;93.45
69171;BME280;56279;47.902;12.308;2023-03-16T04:22:41;95736.41;;;0.00;93.10
69171;BME280;56279;47.902;12.308;2023-03-16T04:24:43;95735.59;;;-0.01;93.69
69171;BME280;56279;47.902;12.308;2023-03-16T04:26:47;95737.59;;;-0.03;93.42
69171;BME280;56279;47.902;12.308;2023-03-16T04:28:48;95738.56;;;-0.04;93.12
69171;BME280;56279;47.902;12.308;2023-03-16T04:30:52;95731.00;;;-0.05;93.77
69171;BME280;56279;47.902;12.308;2023-03-16T04:33:04;95738.97;;;-0.07;93.79
69171;BME280;56279;47.902;12.308;2023-03-16T04:35:07;95731.63;;;-0.10;93.19
69171;BME280;56279;47.902;12.308;2023-03-16T04:37:18;95738.00;;;-0.12;93.97
69171;BME280;56279;47.902;12.308;2023-03-16T04:39:19;95734.19;;;-0.16;93.26
69171;BME280;56279;47.902;12.308;2023-03-16T04:41:21;95733.81;;;-0.20;93.51
69171;BME280;56279;47.902;12.308;2023-03-16T04:43:31;95724.63;;;-0.22;93.47
69171;BME280;56279;47.902;12.308;2023-03-16T04:45:38;95729.00;;;-0.23;93.50
69171;BME280;56279;47.902;12.308;2023-03-16T04:47:40;95725.44;;;-0.22;93.85
69171;BME280;56279;47.902;12.308;2023-03-16T04:49:42;95731.81;;;-0.18;93.25
69171;BME280;56279;47.902;12.308;2023-03-16T04:51:44;95731.41;;;-0.15;93.83
69171;BME280;56279;47.902;12.308;2023-03-16T04:53:49;95732.00;;;-0.13;93.79
69171;BME280;56279;47.902;12.308;2023-03-16T04:55:58;95737.56;;;-0.09;93.68
69171;BME280;56279;47.902;12.308;2023-03-16T04:58:26;95735.97;;;-0.04;93.99
69171;BME280;56279;47.902;12.308;2023-03-16T05:00:29;95737.16;;;0.00;93.67
69171;BME280;56279;47.902;12.308;2023-03-16T05:02:51;95737.16;;;0.07;93.72
69171;BME280;56279;47.902;12.308;2023-03-16T05:04:53;95737.56;;;0.11;93.71
69171;BME280;56279;47.902;12.308;2023-03-16T05:06:55;95734.38;;;0.15;93.40
69171;BME280;56279;47.902;12.308;2023-03-16T05:09:01;95736.34;;;0.20;93.52
69171;BME280;56279;47.902;12.308;2023-03-16T05:11:08;95737.53;;;0.24;93.17
69171;BME280;56279;47.902;12.308;2023-03-16T05:13:20;95737.56;;;0.30;93.02
69171;BME280;56279;47.902;12.308;2023-03-16T05:15:24;95738.53;;;0.36;93.14
69171;BME280;56279;47.902;12.308;2023-03-16T05:17:40;95732.53;;;0.42;93.10
69171;BME280;56279;47.902;12.308;2023-03-16T05:19:46;95735.28;;;0.47;93.09
69171;BME280;56279;47.902;12.308;2023-03-16T05:21:49;95731.50;;;0.49;92.94
69171;BME280;56279;47.902;12.308;2023-03-16T05:23:52;95724.28;;;0.51;92.85
69171;BME280;56279;47.902;12.308;2023-03-16T05:25:53;95726.50;;;0.54;92.97
69171;BME280;56279;47.902;12.308;2023-03-16T05:28:00;95722.91;;;0.55;93.36
69171;BME280;56279;47.902;12.308;2023-03-16T05:30:23;95732.50;;;0.55;93.31
69171;BME280;56279;47.902;12.308;2023-03-16T05:32:26;95725.28;;;0.57;93.05
69171;BME280;56279;47.902;12.308;2023-03-16T05:34:28;95731.88;;;0.59;93.31
69171;BME280;56279;47.902;12.308;2023-03-16T05:36:29;95733.25;;;0.62;92.78
69171;BME280;56279;47.902;12.308;2023-03-16T05:38:38;95737.03;;;0.66;93.55
69171;BME280;56279;47.902;12.308;2023-03-16T05:40:42;95726.03;;;0.70;92.79
69171;BME280;56279;47.902;12.308;2023-03-16T05:43:10;95727.25;;;0.75;92.98
69171;BME280;56279;47.902;12.308;2023-03-16T05:45:17;95724.03;;;0.79;92.52
69171;BME280;56279;47.902;12.308;2023-03-16T05:47:39;95716.00;;;0.81;92.73
69171;BME280;56279;47.902;12.308;2023-03-16T05:49:43;95714.22;;;0.81;93.20
69171;BME280;56279;47.902;12.308;2023-03-16T05:51:54;95716.22;;;0.79;92.23
69171;BME280;56279;47.902;12.308;2023-03-16T05:53:56;95715.84;;;0.76;92.39
69171;BME280;56279;47.902;12.308;2023-03-16T05:56:14;95722.44;;;0.72;92.13
69171;BME280;56279;47.902;12.308;2023-03-16T06:02:14;95713.09;;;0.57;93.29
69171;BME280;56279;47.902;12.308;2023-03-16T06:04:15;95713.31;;;0.56;92.94
69171;BME280;56279;47.902;12.308;2023-03-16T06:06:18;95707.91;;;0.57;93.67
69171;BME280;56279;47.902;12.308;2023-03-16T06:08:35;95713.91;;;0.58;93.44
69171;BME280;56279;47.902;12.308;2023-03-16T06:10:42;95710.28;;;0.59;93.15
69171;BME280;56279;47.902;12.308;2023-03-16T06:12:44;95698.34;;;0.58;92.91
69171;BME280;56279;47.902;12.308;2023-03-16T06:14:46;95701.53;;;0.60;93.19
69171;BME280;56279;47.902;12.308;2023-03-16T06:16:54;95696.31;;;0.60;92.97
69171;BME280;56279;47.902;12.308;2023-03-16T06:19:03;95703.91;;;0.61;93.07
69171;BME280;56279;47.902;12.308;2023-03-16T06:21:06;95705.88;;;0.66;93.33
69171;BME280;56279;47.902;12.308;2023-03-16T06:23:09;95702.06;;;0.68;93.40
69171;BME280;56279;47.902;12.308;2023-03-16T06:25:12;95703.69;;;0.69;92.83
69171;BME280;56279;47.902;12.308;2023-03-16T06:27:16;95703.69;;;0.69;92.89
69171;BME280;56279;47.902;12.308;2023-03-16T06:29:33;95704.50;;;0.70;93.35
69171;BME280;56279;47.902;12.308;2023-03-16T06:31:35;95706.88;;;0.72;92.85
69171;BME280;56279;47.902;12.308;2023-03-16T06:33:37;95705.06;;;0.72;92.86
69171;BME280;56279;47.902;12.308;2023-03-16T06:35:39;95703.06;;;0.74;92.40
69171;BME280;56279;47.902;12.308;2023-03-16T06:37:49;95698.69;;;0.75;93.02
69171;BME280;56279;47.902;12.308;2023-03-16T06:40:03;95705.84;;;0.79;92.58
69171;BME280;56279;47.902;12.308;2023-03-16T06:42:06;95709.63;;;0.83;92.39
69171;BME280;56279;47.902;12.308;2023-03-16T06:44:08;95711.00;;;0.86;92.76
69171;BME280;56279;47.902;12.308;2023-03-16T06:46:15;95696.59;;;0.90;92.86
69171;BME280;56279;47.902;12.308;2023-03-16T06:48:16;95704.78;;;0.93;92.96
69171;BME280;56279;47.902;12.308;2023-03-16T06:50:19;95705.16;;;0.97;92.41
69171;BME280;56279;47.902;12.308;2023-03-16T06:52:21;95700.34;;;1.00;92.17
69171;BME280;56279;47.902;12.308;2023-03-16T06:54:23;95700.72;;;1.04;92.10
69171;BME280;56279;47.902;12.308;2023-03-16T06:56:24;95697.91;;;1.05;92.24
69171;BME280;56279;47.902;12.308;2023-03-16T06:58:46;95695.31;;;1.05;91.86
69171;BME280;56279;47.902;12.308;2023-03-16T07:00:47;95700.91;;;1.09;92.16
69171;BME280;56279;47.902;12.308;2023-03-16T07:02:49;95699.69;;;1.11;91.76
69171;BME280;56279;47.902;12.308;2023-03-16T07:04:50;95701.88;;;1.14;92.34
69171;BME280;56279;47.902;12.308;2023-03-16T07:06:52;95702.47;;;1.16;91.82
69171;BME280;56279;47.902;12.308;2023-03-16T07:08:54;95700.44;;;1.18;92.22
69171;BME280;56279;47.902;12.308;2023-03-16T07:10:56;95705.19;;;1.21;92.67
69171;BME280;56279;47.902;12.308;2023-03-16T07:12:59;95710.00;;;1.24;91.99
69171;BME280;56279;47.902;12.308;2023-03-16T07:15:00;95714.56;;;1.29;91.62
69171;BME280;56279;47.902;12.308;2023-03-16T07:17:03;95708.72;;;1.33;91.74
69171;BME280;56279;47.902;12.308;2023-03-16T07:19:05;95718.31;;;1.39;92.30
69171;BME280;56279;47.902;12.308;2023-03-16T07:21:07;95712.25;;;1.46;91.61
69171;BME280;56279;47.902;12.308;2023-03-16T07:23:08;95712.22;;;1.52;91.08
69171;BME280;56279;47.902;12.308;2023-03-16T07:25:11;95711.00;;;1.55;91.14
69171;BME280;56279;47.902;12.308;2023-03-16T07:27:18;95718.59;;;1.56;90.97
69171;BME280;56279;47.902;12.308;2023-03-16T07:29:20;95720.00;;;1.59;90.89
69171;BME280;56279;47.902;12.308;2023-03-16T07:31:22;95716.13;;;1.61;91.25
69171;BME280;56279;47.902;12.308;2023-03-16T07:33:23;95717.53;;;1.64;90.51
69171;BME280;56279;47.902;12.308;2023-03-16T07:35:25;95710.31;;;1.66;91.07
69171;BME280;56279;47.902;12.308;2023-03-16T07:37:27;95707.28;;;1.69;90.44
69171;BME280;56279;47.902;12.308;2023-03-16T07:39:32;95715.47;;;1.72;90.50
69171;BME280;56279;47.902;12.308;2023-03-16T07:41:40;95715.25;;;1.74;91.21
69171;BME280;56279;47.902;12.308;2023-03-16T07:43:50;95712.66;;;1.74;90.71
69171;BME280;56279;47.902;12.308;2023-03-16T07:45:53;95712.88;;;1.72;90.19
69171;BME280;56279;47.902;12.308;2023-03-16T07:47:54;95712.06;;;1.72;90.62
69171;BME280;56279;47.902;12.308;2023-03-16T07:50:09;95710.47;;;1.71;90.68
69171;BME280;56279;47.902;12.308;2023-03-16T07:52:13;95707.69;;;1.72;90.75
69171;BME280;56279;47.902;12.308;2023-03-16T07:54:15;95715.03;;;1.75;90.37
69171;BME280;56279;47.902;12.308;2023-03-16T07:56:18;95716.22;;;1.79;90.80
69171;BME280;56279;47.902;12.308;2023-03-16T07:58:30;95719.00;;;1.84;90.77
69171;BME280;56279;47.902;12.308;2023-03-16T08:00:34;95726.16;;;1.89;91.15
69171;BME280;56279;47.902;12.308;2023-03-16T08:02:36;95724.72;;;1.93;90.71
69171;BME280;56279;47.902;12.308;2023-03-16T08:04:43;95720.66;;;1.97;90.61
69171;BME280;56279;47.902;12.308;2023-03-16T08:06:46;95721.81;;;2.01;90.25
69171;BME280;56279;47.902;12.308;2023-03-16T08:08:48;95720.59;;;2.03;90.70
69171;BME280;56279;47.902;12.308;2023-03-16T08:10:58;95727.78;;;2.08;90.12
69171;BME280;56279;47.902;12.308;2023-03-16T08:13:10;95729.72;;;2.13;90.83
69171;BME280;56279;47.902;12.308;2023-03-16T08:15:16;95730.69;;;2.18;90.15
69171;BME280;56279;47.902;12.308;2023-03-16T08:17:19;95727.22;;;2.24;90.18
69171;BME280;56279;47.902;12.308;2023-03-16T08:19:23;95730.78;;;2.30;90.53
69171;BME280;56279;47.902;12.308;2023-03-16T08:21:25;95729.91;;;2.36;90.25
69171;BME280;56279;47.902;12.308;2023-03-16T08:23:28;95725.88;;;2.40;90.32
69171;BME280;56279;47.902;12.308;2023-03-16T08:25:31;95726.03;;;2.45;89.96
69171;BME280;56279;47.902;12.308;2023-03-16T08:27:46;95718.56;;;2.48;89.70
69171;BME280;56279;47.902;12.308;2023-03-16T08:29:51;95718.72;;;2.53;90.08
69171;BME280;56279;47.902;12.308;2023-03-16T08:31:54;95720.47;;;2.59;89.21
69171;BME280;56279;47.902;12.308;2023-03-16T08:34:03;95725.63;;;2.66;89.92
69171;BME280;56279;47.902;12.308;2023-03-16T08:36:07;95725.53;;;2.72;88.82
69171;BME280;56279;47.902;12.308;2023-03-16T08:38:11;95725.69;;;2.77;89.25
69171;BME280;56279;47.902;12.308;2023-03-16T08:40:12;95729.00;;;2.85;89.53
69171;BME280;56279;47.902;12.308;2023-03-16T08:42:16;95723.72;;;2.91;89.16
69171;BME280;56279;47.902;12.308;2023-03-16T08:44:24;95730.44;;;2.99;88.48
69171;BME280;56279;47.902;12.308;2023-03-16T08:46:26;95729.00;;;3.03;88.37
69171;BME280;56279;47.902;12.308;2023-03-16T08:48:32;95724.91;;;3.07;88.77
69171;BME280;56279;47.902;12.308;2023-03-16T08:50:34;95725.84;;;3.12;88.56
69171;BME280;56279;47.902;12.308;2023-03-16T08:52:35;95732.78;;;3.18;88.10
69171;BME280;56279;47.902;12.308;2023-03-16T08:54:38;95733.63;;;3.30;88.04
69171;BME280;56279;47.902;12.308;2023-03-16T08:56:41;95733.25;;;3.45;87.88
69171;BME280;56279;47.902;12.308;2023-03-16T08:58:44;95731.81;;;3.61;87.96
69171;BME280;56279;47.902;12.308;2023-03-16T09:00:46;95740.00;;;3.76;87.41
69171;BME280;56279;47.902;12.308;2023-03-16T09:02:47;95734.84;;;3.87;87.23
69171;BME280;56279;47.902;12.308;2023-03-16T09:04:49;95738.91;;;3.95;86.88
69171;BME280;56279;47.902;12.308;2023-03-16T09:06:50;95737.09;;;3.95;86.97
69171;BME280;56279;47.902;12.308;2023-03-16T09:08:51;95733.69;;;3.95;86.97
69171;BME280;56279;47.902;12.308;2023-03-16T09:11:05;95741.31;;;3.96;86.76
69171;BME280;56279;47.902;12.308;2023-03-16T09:13:07;95735.84;;;3.98;86.53
69171;BME280;56279;47.902;12.308;2023-03-16T09:18:32;95729.28;;;4.07;86.21
69171;BME280;56279;47.902;12.308;2023-03-16T09:20:35;95729.50;;;4.05;86.15
69171;BME280;56279;47.902;12.308;2023-03-16T09:22:37;95735.75;;;4.04;86.03
69171;BME280;56279;47.902;12.308;2023-03-16T09:24:38;95732.13;;;4.05;86.13
69171;BME280;56279;47.902;12.308;2023-03-16T09:26:40;95739.16;;;4.05;86.34
69171;BME280;56279;47.902;12.308;2023-03-16T09:28:42;95748.00;;;4.04;85.87
69171;BME280;56279;47.902;12.308;2023-03-16T09:30:43;95737.13;;;4.07;86.02
69171;BME280;56279;47.902;12.308;2023-03-16T09:32:45;95739.28;;;4.10;86.20
69171;BME280;56279;47.902;12.308;2023-03-16T09:34:48;95728.47;;;4.06;86.14
69171;BME280;56279;47.902;12.308;2023-03-16T09:36:50;95730.97;;;4.01;85.98
69171;BME280;56279;47.902;12.308;2023-03-16T09:38:54;95740.06;;;3.99;86.03
69171;BME280;56279;47.902;12.308;2023-03-16T09:40:59;95734.63;;;4.00;85.95
69171;BME280;56279;47.902;12.308;2023-03-16T09:47:48;95723.81;;;3.97;86.14
69171;BME280;56279;47.902;12.308;2023-03-16T09:49:51;95717.13;;;4.01;86.11
69171;BME280;56279;47.902;12.308;2023-03-16T09:54:26;95720.88;;;4.05;85.95
69171;BME280;56279;47.902;12.308;2023-03-16T10:07:11;95724.50;;;4.04;85.29
69171;BME280;56279;47.902;12.308;2023-03-16T10:11:45;95719.19;;;4.10;85.45
69171;BME280;56279;47.902;12.308;2023-03-16T10:16:33;95712.38;;;4.21;84.42
69171;BME280;56279;47.902;12.308;2023-03-16T10:18:42;95709.88;;;4.26;84.26
69171;BME280;56279;47.902;12.308;2023-03-16T10:20:45;95711.81;;;4.31;84.32
69171;BME280;56279;47.902;12.308;2023-03-16T10:22:50;95717.34;;;4.34;83.97
69171;BME280;56279;47.902;12.308;2023-03-16T10:27:22;95714.19;;;4.32;84.08
69171;BME280;56279;47.902;12.308;2023-03-16T10:29:29;95710.78;;;4.32;83.87
69171;BME280;56279;47.902;12.308;2023-03-16T10:31:33;95704.53;;;4.33;83.82
69171;BME280;56279;47.902;12.308;2023-03-16T10:33:35;95706.13;;;4.34;83.58
69171;BME280;56279;47.902;12.308;2023-03-16T10:35:45;95706.69;;;4.36;84.03
69171;BME280;56279;47.902;12.308;2023-03-16T10:37:47;95706.25;;;4.39;83.63
69171;BME280;56279;47.902;12.308;2023-03-16T10:39:49;95707.81;;;4.40;82.94
69171;BME280;56279;47.902;12.308;2023-03-16T10:41:55;95698.16;;;4.40;83.05
69171;BME280;56279;47.902;12.308;2023-03-16T10:44:12;95707.38;;;4.43;82.91
69171;BME280;56279;47.902;12.308;2023-03-16T10:46:14;95709.50;;;4.46;82.93
69171;BME280;56279;47.902;12.308;2023-03-16T10:48:19;95709.06;;;4.49;83.11
69171;BME280;56279;47.902;12.308;2023-03-16T10:50:24;95703.38;;;4.52;83.03
69171;BME280;56279;47.902;12.308;2023-03-16T10:52:40;95704.94;;;4.53;83.05
69171;BME280;56279;47.902;12.308;2023-03-16T10:54:53;95697.47;;;4.56;82.52
69171;BME280;56279;47.902;12.308;2023-03-16T10:56:57;95694.97;;;4.61;82.49
69171;BME280;56279;47.902;12.308;2023-03-16T10:58:58;95695.28;;;4.65;82.19
69171;BME280;56279;47.902;12.308;2023-03-16T11:01:00;95693.81;;;4.69;81.96
69171;BME280;56279;47.902;12.308;2023-03-16T11:03:26;95695.50;;;4.75;81.98
69171;BME280;56279;47.902;12.308;2023-03-16T11:05:31;95696.16;;;4.82;81.29
69171;BME280;56279;47.902;12.308;2023-03-16T11:07:34;95695.22;;;4.88;81.33
69171;BME280;56279;47.902;12.308;2023-03-16T11:09:36;95691.91;;;4.93;81.17
69171;BME280;56279;47.902;12.308;2023-03-16T11:11:37;95689.97;;;5.00;80.94
69171;BME280;56279;47.902;12.308;2023-03-16T11:13:44;95684.38;;;5.08;80.96
69171;BME280;56279;47.902;12.308;2023-03-16T11:15:47;95670.13;;;5.15;80.67
69171;BME280;56279;47.902;12.308;2023-03-16T11:17:51;95673.41;;;5.22;80.66
69171;BME280;56279;47.902;12.308;2023-03-16T11:19:57;95670.63;;;5.29;80.30
69171;BME280;56279;47.902;12.308;2023-03-16T11:22:05;95665.72;;;5.32;79.86
69171;BME280;56279;47.902;12.308;2023-03-16T11:24:36;95665.59;;;5.39;79.80
69171;BME280;56279;47.902;12.308;2023-03-16T11:26:43;95657.59;;;5.45;79.31
69171;BME280;56279;47.902;12.308;2023-03-16T11:28:50;95660.03;;;5.52;79.29
69171;BME280;56279;47.902;12.308;2023-03-16T11:31:16;95655.44;;;5.59;79.05
69171;BME280;56279;47.902;12.308;2023-03-16T11:33:20;95648.00;;;5.68;78.82
69171;BME280;56279;47.902;12.308;2023-03-16T11:35:46;95646.00;;;5.75;78.82
69171;BME280;56279;47.902;12.308;2023-03-16T11:37:59;95645.63;;;5.83;78.89
69171;BME280;56279;47.902;12.308;2023-03-16T11:40:24;95634.22;;;5.89;78.75
69171;BME280;56279;47.902;12.308;2023-03-16T11:42:32;95633.28;;;5.95;78.10
69171;BME280;56279;47.902;12.308;2023-03-16T11:47:14;95620.31;;;6.05;77.22